sensor_id;sensor_type;location;lat;lon;timestamp;pressure;altitude;pressure_sealevel;temperature;humidity
38197;BME280;26543;51.976;4.616;2024-02-23T00:00:06;58478.81;;;-140.72;100.00
38197;BME280;26543;51.976;4.616;2024-02-23T00:02:32;58442.25;;;-140.72;100.00
38197;BME280;26543;51.976;4.616;2024-02-23T00:04:58;58381.28;;;-140.72;100.00
38197;BME280;26543;51.976;4.616;2024-02-23T00:07:23;58314.22;;;-140.72;100.00
38197;BME280;26543;51.976;4.616;2024-02-23T00:09:48;58249.19;;;-140.72;100.00
38197;BME280;26543;51.976;4.616;2024-02-23T00:12:14;58163.84;;;-140.72;100.00
38197;BME280;26543;51.976;4.616;2024-02-23T00:14:39;58064.28;;;-140.72;100.00
38197;BME280;26543;51.976;4.616;2024-02-23T00:17:04;57983.00;;;-140.72;100.00
38197;BME280;26543;51.976;4.616;2024-02-23T00:19:31;57832.63;;;-140.72;100.00
38197;BME280;26543;51.976;4.616;2024-02-23T00:21:56;57720.88;;;-140.72;100.00
38197;BME280;26543;51.976;4.616;2024-02-23T00:24:24;57708.69;;;-140.72;100.00
38197;BME280;26543;51.976;4.616;2024-02-23T00:26:49;57637.56;;;-140.72;100.00
38197;BME280;26543;51.976;4.616;2024-02-23T00:29:17;57714.78;;;-140.72;100.00
38197;BME280;26543;51.976;4.616;2024-02-23T00:31:42;57796.06;;;-140.72;100.00
38197;BME280;26543;51.976;4.616;2024-02-23T00:34:08;57806.22;;;-140.72;100.00
38197;BME280;26543;51.976;4.616;2024-02-23T00:36:38;57885.47;;;-140.72;100.00
38197;BME280;26543;51.976;4.616;2024-02-23T00:39:03;57999.25;;;-140.72;100.00
38197;BME280;26543;51.976;4.616;2024-02-23T00:41:28;58106.94;;;-140.72;100.00
38197;BME280;26543;51.976;4.616;2024-02-23T00:43:54;58267.47;;;-140.72;100.00
38197;BME280;26543;51.976;4.616;2024-02-23T00:46:19;58360.97;;;-140.72;100.00
38197;BME280;26543;51.976;4.616;2024-02-23T00:48:44;58491.03;;;-140.72;100.00
38197;BME280;26543;51.976;4.616;2024-02-23T00:51:10;58596.69;;;-140.72;100.00
38197;BME280;26543;51.976;4.616;2024-02-23T00:53:35;58738.97;;;-140.72;100.00
38197;BME280;26543;51.976;4.616;2024-02-23T00:56:00;58787.75;;;-140.72;100.00
38197;BME280;26543;51.976;4.616;2024-02-23T00:58:26;58873.09;;;-140.72;100.00
38197;BME280;26543;51.976;4.616;2024-02-23T01:00:51;58891.38;;;-140.72;100.00
38197;BME280;26543;51.976;4.616;2024-02-23T01:03:16;58934.06;;;-140.72;100.00
38197;BME280;26543;51.976;4.616;2024-02-23T01:05:42;58913.75;;;-140.72;100.00
38197;BME280;26543;51.976;4.616;2024-02-23T01:08:08;58938.13;;;-140.72;100.00
38197;BME280;26543;51.976;4.616;2024-02-23T01:10:33;58923.91;;;-140.72;100.00
38197;BME280;26543;51.976;4.616;2024-02-23T01:12:58;58921.88;;;-140.72;100.00
38197;BME280;26543;51.976;4.616;2024-02-23T01:15:24;58907.66;;;-140.72;100.00
38197;BME280;26543;51.976;4.616;2024-02-23T01:17:49;58846.69;;;-140.72;100.00
38197;BME280;26543;51.976;4.616;2024-02-23T01:20:14;58734.91;;;-140.72;100.00
38197;BME280;26543;51.976;4.616;2024-02-23T01:22:40;58635.31;;;-140.72;100.00
38197;BME280;26543;51.976;4.616;2024-02-23T01:25:05;58590.59;;;-140.72;100.00
38197;BME280;26543;51.976;4.616;2024-02-23T01:27:31;58472.72;;;-140.72;100.00
38197;BME280;26543;51.976;4.616;2024-02-23T01:29:56;58397.53;;;-140.72;100.00
38197;BME280;26543;51.976;4.616;2024-02-23T01:32:22;58324.38;;;-140.72;100.00
38197;BME280;26543;51.976;4.616;2024-02-23T01:34:47;58245.13;;;-140.72;100.00
38197;BME280;26543;51.976;4.616;2024-02-23T01:37:12;58226.84;;;-140.72;100.00
38197;BME280;26543;51.976;4.616;2024-02-23T01:39:38;58198.38;;;-140.72;100.00
38197;BME280;26543;51.976;4.616;2024-02-23T01:42:04;58161.81;;;-140.72;100.00
38197;BME280;26543;51.976;4.616;2024-02-23T01:44:29;58106.94;;;-140.72;100.00
38197;BME280;26543;51.976;4.616;2024-02-23T01:46:55;58035.81;;;-140.72;100.00
38197;BME280;26543;51.976;4.616;2024-02-23T01:49:20;58011.44;;;-140.72;100.00
38197;BME280;26543;51.976;4.616;2024-02-23T01:51:45;57972.84;;;-140.72;100.00
38197;BME280;26543;51.976;4.616;2024-02-23T01:54:11;57893.59;;;-140.72;100.00
38197;BME280;26543;51.976;4.616;2024-02-23T01:56:37;57889.53;;;-140.72;100.00
38197;BME280;26543;51.976;4.616;2024-02-23T01:59:04;57848.88;;;-140.72;100.00
38197;BME280;26543;51.976;4.616;2024-02-23T02:01:31;57840.75;;;-140.72;100.00
38197;BME280;26543;51.976;4.616;2024-02-23T02:03:57;57873.25;;;-140.72;100.00
38197;BME280;26543;51.976;4.616;2024-02-23T02:06:23;57901.72;;;-140.72;100.00
38197;BME280;26543;51.976;4.616;2024-02-23T02:08:49;57905.78;;;-140.72;100.00
38197;BME280;26543;51.976;4.616;2024-02-23T02:11:14;57942.34;;;-140.72;100.00
38197;BME280;26543;51.976;4.616;2024-02-23T02:13:40;57932.19;;;-140.72;100.00
38197;BME280;26543;51.976;4.616;2024-02-23T02:16:06;57970.81;;;-140.72;100.00
38197;BME280;26543;51.976;4.616;2024-02-23T02:18:31;57993.16;;;-140.72;100.00
38197;BME280;26543;51.976;4.616;2024-02-23T02:20:57;58033.78;;;-140.72;100.00
38197;BME280;26543;51.976;4.616;2024-02-23T02:23:23;58058.19;;;-140.72;100.00
38197;BME280;26543;51.976;4.616;2024-02-23T02:25:53;58115.06;;;-140.72;100.00
38197;BME280;26543;51.976;4.616;2024-02-23T02:28:18;58133.38;;;-140.72;100.00
38197;BME280;26543;51.976;4.616;2024-02-23T02:30:44;58141.50;;;-140.72;100.00
38197;BME280;26543;51.976;4.616;2024-02-23T02:33:09;58261.38;;;-140.72;100.00
38197;BME280;26543;51.976;4.616;2024-02-23T02:35:34;58279.66;;;-140.72;100.00
38197;BME280;26543;51.976;4.616;2024-02-23T02:38:00;58320.31;;;-140.72;100.00
38197;BME280;26543;51.976;4.616;2024-02-23T02:40:25;58381.28;;;-140.72;100.00
38197;BME280;26543;51.976;4.616;2024-02-23T02:42:50;58365.03;;;-140.72;100.00
38197;BME280;26543;51.976;4.616;2024-02-23T02:45:15;58367.06;;;-140.72;100.00
38197;BME280;26543;51.976;4.616;2024-02-23T02:47:42;58379.25;;;-140.72;100.00
38197;BME280;26543;51.976;4.616;2024-02-23T02:50:08;58373.16;;;-140.72;100.00
38197;BME280;26543;51.976;4.616;2024-02-23T02:52:34;58369.09;;;-140.72;100.00
38197;BME280;26543;51.976;4.616;2024-02-23T02:54:59;58371.13;;;-140.72;100.00
38197;BME280;26543;51.976;4.616;2024-02-23T02:57:24;58393.47;;;-140.72;100.00
38197;BME280;26543;51.976;4.616;2024-02-23T02:59:50;58434.13;;;-140.72;100.00
38197;BME280;26543;51.976;4.616;2024-02-23T03:02:15;58476.78;;;-140.72;100.00
38197;BME280;26543;51.976;4.616;2024-02-23T03:04:49;58442.25;;;-140.72;100.00
38197;BME280;26543;51.976;4.616;2024-02-23T03:07:16;58486.97;;;-140.72;100.00
38197;BME280;26543;51.976;4.616;2024-02-23T03:09:41;58474.75;;;-140.72;100.00
38197;BME280;26543;51.976;4.616;2024-02-23T03:12:07;58460.53;;;-140.72;100.00
38197;BME280;26543;51.976;4.616;2024-02-23T03:14:32;58499.16;;;-140.72;100.00
38197;BME280;26543;51.976;4.616;2024-02-23T03:16:59;58521.50;;;-140.72;100.00
38197;BME280;26543;51.976;4.616;2024-02-23T03:19:24;58582.47;;;-140.72;100.00
38197;BME280;26543;51.976;4.616;2024-02-23T03:21:51;58588.56;;;-140.72;100.00
38197;BME280;26543;51.976;4.616;2024-02-23T03:24:16;58610.94;;;-140.72;100.00
38197;BME280;26543;51.976;4.616;2024-02-23T03:26:41;58602.78;;;-140.72;100.00
38197;BME280;26543;51.976;4.616;2024-02-23T03:29:07;58657.66;;;-140.72;100.00
38197;BME280;26543;51.976;4.616;2024-02-23T03:31:32;58696.28;;;-140.72;100.00
38197;BME280;26543;51.976;4.616;2024-02-23T03:33:57;58682.06;;;-140.72;100.00
38197;BME280;26543;51.976;4.616;2024-02-23T03:36:23;58745.06;;;-140.72;100.00
38197;BME280;26543;51.976;4.616;2024-02-23T03:38:48;58779.59;;;-140.72;100.00
38197;BME280;26543;51.976;4.616;2024-02-23T03:41:14;58773.50;;;-140.72;100.00
38197;BME280;26543;51.976;4.616;2024-02-23T03:43:39;58814.16;;;-140.72;100.00
38197;BME280;26543;51.976;4.616;2024-02-23T03:46:06;58826.34;;;-140.72;100.00
38197;BME280;26543;51.976;4.616;2024-02-23T03:48:31;58852.78;;;-140.72;100.00
38197;BME280;26543;51.976;4.616;2024-02-23T03:50:57;58871.06;;;-140.72;100.00
38197;BME280;26543;51.976;4.616;2024-02-23T03:53:22;58862.94;;;-140.72;100.00
38197;BME280;26543;51.976;4.616;2024-02-23T03:55:48;58891.38;;;-140.72;100.00
38197;BME280;26543;51.976;4.616;2024-02-23T03:58:13;58891.38;;;-140.72;100.00
38197;BME280;26543;51.976;4.616;2024-02-23T04:00:38;58905.63;;;-140.72;100.00
38197;BME280;26543;51.976;4.616;2024-02-23T04:03:04;58972.69;;;-140.72;100.00
38197;BME280;26543;51.976;4.616;2024-02-23T04:05:29;58954.41;;;-140.72;100.00
38197;BME280;26543;51.976;4.616;2024-02-23T04:07:55;58958.47;;;-140.72;100.00
38197;BME280;26543;51.976;4.616;2024-02-23T04:10:20;59007.25;;;-140.72;100.00
38197;BME280;26543;51.976;4.616;2024-02-23T04:12:48;59029.59;;;-140.72;100.00
38197;BME280;26543;51.976;4.616;2024-02-23T04:15:13;59031.63;;;-140.72;100.00
38197;BME280;26543;51.976;4.616;2024-02-23T04:17:39;59070.25;;;-140.72;100.00
38197;BME280;26543;51.976;4.616;2024-02-23T04:20:08;59125.13;;;-140.72;100.00
38197;BME280;26543;51.976;4.616;2024-02-23T04:22:35;59165.78;;;-140.72;100.00
38197;BME280;26543;51.976;4.616;2024-02-23T04:25:00;59153.59;;;-140.72;100.00
38197;BME280;26543;51.976;4.616;2024-02-23T04:27:25;59204.41;;;-140.72;100.00
38197;BME280;26543;51.976;4.616;2024-02-23T04:29:50;59267.41;;;-140.72;100.00
38197;BME280;26543;51.976;4.616;2024-02-23T04:32:16;59243.03;;;-140.72;100.00
38197;BME280;26543;51.976;4.616;2024-02-23T04:34:41;59255.22;;;-140.72;100.00
38197;BME280;26543;51.976;4.616;2024-02-23T04:37:07;59202.38;;;-140.72;100.00
38197;BME280;26543;51.976;4.616;2024-02-23T04:39:32;59243.03;;;-140.72;100.00
38197;BME280;26543;51.976;4.616;2024-02-23T04:41:57;59202.38;;;-140.72;100.00
38197;BME280;26543;51.976;4.616;2024-02-23T04:44:23;59175.94;;;-140.72;100.00
38197;BME280;26543;51.976;4.616;2024-02-23T04:46:51;59161.72;;;-140.72;100.00
38197;BME280;26543;51.976;4.616;2024-02-23T04:49:16;59129.19;;;-140.72;100.00
38197;BME280;26543;51.976;4.616;2024-02-23T04:51:42;59102.78;;;-140.72;100.00
38197;BME280;26543;51.976;4.616;2024-02-23T04:54:07;59088.53;;;-140.72;100.00
38197;BME280;26543;51.976;4.616;2024-02-23T04:56:32;59049.94;;;-140.72;100.00
38197;BME280;26543;51.976;4.616;2024-02-23T04:58:58;59035.69;;;-140.72;100.00
38197;BME280;26543;51.976;4.616;2024-02-23T05:01:24;59025.53;;;-140.72;100.00
38197;BME280;26543;51.976;4.616;2024-02-23T05:03:49;58958.47;;;-140.72;100.00
38197;BME280;26543;51.976;4.616;2024-02-23T05:06:15;58970.66;;;-140.72;100.00
38197;BME280;26543;51.976;4.616;2024-02-23T05:08:40;58907.66;;;-140.72;100.00
38197;BME280;26543;51.976;4.616;2024-02-23T05:11:06;58860.91;;;-140.72;100.00
38197;BME280;26543;51.976;4.616;2024-02-23T05:13:31;58842.63;;;-140.72;100.00
38197;BME280;26543;51.976;4.616;2024-02-23T05:15:56;58814.16;;;-140.72;100.00
38197;BME280;26543;51.976;4.616;2024-02-23T05:18:22;58824.31;;;-140.72;100.00
38197;BME280;26543;51.976;4.616;2024-02-23T05:20:47;58862.94;;;-140.72;100.00
38197;BME280;26543;51.976;4.616;2024-02-23T05:23:13;58848.72;;;-140.72;100.00
38197;BME280;26543;51.976;4.616;2024-02-23T05:25:41;58797.91;;;-140.72;100.00
38197;BME280;26543;51.976;4.616;2024-02-23T05:28:06;58828.38;;;-140.72;100.00
38197;BME280;26543;51.976;4.616;2024-02-23T05:30:31;58842.63;;;-140.72;100.00
38197;BME280;26543;51.976;4.616;2024-02-23T05:32:57;58828.38;;;-140.72;100.00
38197;BME280;26543;51.976;4.616;2024-02-23T05:35:24;58812.13;;;-140.72;100.00
38197;BME280;26543;51.976;4.616;2024-02-23T05:37:49;58724.72;;;-140.72;100.00
38197;BME280;26543;51.976;4.616;2024-02-23T05:40:15;58690.19;;;-140.72;100.00
38197;BME280;26543;51.976;4.616;2024-02-23T05:42:41;58675.97;;;-140.72;100.00
38197;BME280;26543;51.976;4.616;2024-02-23T05:45:07;58655.63;;;-140.72;100.00
38197;BME280;26543;51.976;4.616;2024-02-23T05:47:35;58627.19;;;-140.72;100.00
38197;BME280;26543;51.976;4.616;2024-02-23T05:50:02;58615.00;;;-140.72;100.00
38197;BME280;26543;51.976;4.616;2024-02-23T05:52:28;58562.16;;;-140.72;100.00
38197;BME280;26543;51.976;4.616;2024-02-23T05:54:53;58547.91;;;-140.72;100.00
38197;BME280;26543;51.976;4.616;2024-02-23T05:57:21;58566.22;;;-140.72;100.00
38197;BME280;26543;51.976;4.616;2024-02-23T05:59:46;58523.53;;;-140.72;100.00
38197;BME280;26543;51.976;4.616;2024-02-23T06:02:12;58486.97;;;-140.72;100.00
38197;BME280;26543;51.976;4.616;2024-02-23T06:04:37;58446.31;;;-140.72;100.00
38197;BME280;26543;51.976;4.616;2024-02-23T06:07:03;58460.53;;;-140.72;100.00
38197;BME280;26543;51.976;4.616;2024-02-23T06:09:28;58434.13;;;-140.72;100.00
38197;BME280;26543;51.976;4.616;2024-02-23T06:11:53;58360.97;;;-140.72;100.00
38197;BME280;26543;51.976;4.616;2024-02-23T06:14:19;58348.75;;;-140.72;100.00
38197;BME280;26543;51.976;4.616;2024-02-23T06:16:44;58336.56;;;-140.72;100.00
38197;BME280;26543;51.976;4.616;2024-02-23T06:19:09;58324.38;;;-140.72;100.00
38197;BME280;26543;51.976;4.616;2024-02-23T06:21:35;58279.66;;;-140.72;100.00
38197;BME280;26543;51.976;4.616;2024-02-23T06:24:00;58257.31;;;-140.72;100.00
38197;BME280;26543;51.976;4.616;2024-02-23T06:26:26;58155.72;;;-140.72;100.00
38197;BME280;26543;51.976;4.616;2024-02-23T06:28:51;58182.13;;;-140.72;100.00
38197;BME280;26543;51.976;4.616;2024-02-23T06:31:16;58127.25;;;-140.72;100.00
38197;BME280;26543;51.976;4.616;2024-02-23T06:33:42;58141.50;;;-140.72;100.00
38197;BME280;26543;51.976;4.616;2024-02-23T06:36:07;58094.75;;;-140.72;100.00
38197;BME280;26543;51.976;4.616;2024-02-23T06:38:33;58031.75;;;-140.72;100.00
38197;BME280;26543;51.976;4.616;2024-02-23T06:40:59;58052.09;;;-140.72;100.00
38197;BME280;26543;51.976;4.616;2024-02-23T06:43:24;58009.41;;;-140.72;100.00
38197;BME280;26543;51.976;4.616;2024-02-23T06:45:50;58027.69;;;-140.72;100.00
38197;BME280;26543;51.976;4.616;2024-02-23T06:48:16;57991.13;;;-140.72;100.00
38197;BME280;26543;51.976;4.616;2024-02-23T06:50:41;57934.22;;;-140.72;100.00
38197;BME280;26543;51.976;4.616;2024-02-23T06:53:06;57877.34;;;-140.72;100.00
38197;BME280;26543;51.976;4.616;2024-02-23T06:55:34;57857.00;;;-140.72;100.00
38197;BME280;26543;51.976;4.616;2024-02-23T06:57:59;57830.59;;;-140.72;100.00
38197;BME280;26543;51.976;4.616;2024-02-23T07:00:25;57785.91;;;-140.72;100.00
38197;BME280;26543;51.976;4.616;2024-02-23T07:02:50;57755.41;;;-140.72;100.00
38197;BME280;26543;51.976;4.616;2024-02-23T07:05:15;57710.72;;;-140.72;100.00
38197;BME280;26543;51.976;4.616;2024-02-23T07:07:40;57702.59;;;-140.72;100.00
38197;BME280;26543;51.976;4.616;2024-02-23T07:10:06;57655.84;;;-140.72;100.00
38197;BME280;26543;51.976;4.616;2024-02-23T07:12:32;57653.81;;;-140.72;100.00
38197;BME280;26543;51.976;4.616;2024-02-23T07:14:58;57609.13;;;-140.72;100.00
38197;BME280;26543;51.976;4.616;2024-02-23T07:17:23;57550.19;;;-140.72;100.00
38197;BME280;26543;51.976;4.616;2024-02-23T07:19:49;57546.13;;;-140.72;100.00
38197;BME280;26543;51.976;4.616;2024-02-23T07:22:15;57550.19;;;-140.72;100.00
38197;BME280;26543;51.976;4.616;2024-02-23T07:24:43;57552.22;;;-140.72;100.00
38197;BME280;26543;51.976;4.616;2024-02-23T07:27:08;57552.22;;;-140.72;100.00
38197;BME280;26543;51.976;4.616;2024-02-23T07:29:34;57560.38;;;-140.72;100.00
38197;BME280;26543;51.976;4.616;2024-02-23T07:31:59;57576.63;;;-140.72;100.00
38197;BME280;26543;51.976;4.616;2024-02-23T07:34:24;57598.97;;;-140.72;100.00
38197;BME280;26543;51.976;4.616;2024-02-23T07:36:53;57641.63;;;-140.72;100.00
38197;BME280;26543;51.976;4.616;2024-02-23T07:39:20;57710.72;;;-140.72;100.00
38197;BME280;26543;51.976;4.616;2024-02-23T07:41:45;57794.03;;;-140.72;100.00
38197;BME280;26543;51.976;4.616;2024-02-23T07:44:11;57800.13;;;-140.72;100.00
38197;BME280;26543;51.976;4.616;2024-02-23T07:46:37;57946.41;;;-140.72;100.00
38197;BME280;26543;51.976;4.616;2024-02-23T07:49:02;58033.78;;;-140.72;100.00
38197;BME280;26543;51.976;4.616;2024-02-23T07:51:28;58226.84;;;-140.72;100.00
38197;BME280;26543;51.976;4.616;2024-02-23T07:53:53;58306.09;;;-140.72;100.00
38197;BME280;26543;51.976;4.616;2024-02-23T07:56:19;58458.50;;;-140.72;100.00
38197;BME280;26543;51.976;4.616;2024-02-23T07:58:44;58560.13;;;-140.72;100.00
38197;BME280;26543;51.976;4.616;2024-02-23T08:01:10;58686.13;;;-140.72;100.00
38197;BME280;26543;51.976;4.616;2024-02-23T08:03:35;58797.91;;;-140.72;100.00
38197;BME280;26543;51.976;4.616;2024-02-23T08:06:00;58897.50;;;-140.72;100.00
38197;BME280;26543;51.976;4.616;2024-02-23T08:08:26;59027.56;;;-140.72;100.00
38197;BME280;26543;51.976;4.616;2024-02-23T08:10:53;59125.13;;;-140.72;100.00
38197;BME280;26543;51.976;4.616;2024-02-23T08:13:18;59243.03;;;-140.72;100.00
38197;BME280;26543;51.976;4.616;2024-02-23T08:15:46;59320.25;;;-140.72;100.00
38197;BME280;26543;51.976;4.616;2024-02-23T08:18:11;59436.13;;;-140.72;100.00
38197;BME280;26543;51.976;4.616;2024-02-23T08:20:36;59417.84;;;-140.72;100.00
38197;BME280;26543;51.976;4.616;2024-02-23T08:23:02;59486.94;;;-140.72;100.00
38197;BME280;26543;51.976;4.616;2024-02-23T08:25:28;59527.59;;;-140.72;100.00
38197;BME280;26543;51.976;4.616;2024-02-23T08:27:57;59549.97;;;-140.72;100.00
38197;BME280;26543;51.976;4.616;2024-02-23T08:30:24;59617.03;;;-140.72;100.00
38197;BME280;26543;51.976;4.616;2024-02-23T08:32:49;59698.34;;;-140.72;100.00
38197;BME280;26543;51.976;4.616;2024-02-23T08:35:15;59704.44;;;-140.72;100.00
38197;BME280;26543;51.976;4.616;2024-02-23T08:37:40;59759.34;;;-140.72;100.00
38197;BME280;26543;51.976;4.616;2024-02-23T08:40:07;59751.22;;;-140.72;100.00
38197;BME280;26543;51.976;4.616;2024-02-23T08:42:33;59810.16;;;-140.72;100.00
38197;BME280;26543;51.976;4.616;2024-02-23T08:44:58;59808.13;;;-140.72;100.00
38197;BME280;26543;51.976;4.616;2024-02-23T08:47:23;59901.66;;;-140.72;100.00
38197;BME280;26543;51.976;4.616;2024-02-23T08:49:49;59893.50;;;-140.72;100.00
38197;BME280;26543;51.976;4.616;2024-02-23T08:52:15;59970.78;;;-140.72;100.00
38197;BME280;26543;51.976;4.616;2024-02-23T08:54:40;59987.03;;;-140.72;100.00
38197;BME280;26543;51.976;4.616;2024-02-23T08:57:05;60011.44;;;-140.72;100.00
38197;BME280;26543;51.976;4.616;2024-02-23T08:59:31;60043.97;;;-140.72;100.00
38197;BME280;26543;51.976;4.616;2024-02-23T09:01:56;60078.53;;;-140.72;100.00
38197;BME280;26543;51.976;4.616;2024-02-23T09:04:21;60058.19;;;-140.72;100.00
38197;BME280;26543;51.976;4.616;2024-02-23T09:06:47;60052.09;;;-140.72;100.00
38197;BME280;26543;51.976;4.616;2024-02-23T09:09:14;60054.13;;;-140.72;100.00
38197;BME280;26543;51.976;4.616;2024-02-23T09:11:39;60021.59;;;-140.72;100.00
38197;BME280;26543;51.976;4.616;2024-02-23T09:14:04;60039.88;;;-140.72;100.00
38197;BME280;26543;51.976;4.616;2024-02-23T09:16:30;60019.56;;;-140.72;100.00
38197;BME280;26543;51.976;4.616;2024-02-23T09:18:55;59966.69;;;-140.72;100.00
38197;BME280;26543;51.976;4.616;2024-02-23T09:21:20;59897.56;;;-140.72;100.00
38197;BME280;26543;51.976;4.616;2024-02-23T09:23:48;59891.47;;;-140.72;100.00
38197;BME280;26543;51.976;4.616;2024-02-23T09:26:13;59820.31;;;-140.72;100.00
38197;BME280;26543;51.976;4.616;2024-02-23T09:28:38;59810.16;;;-140.72;100.00
38197;BME280;26543;51.976;4.616;2024-02-23T09:31:06;59806.09;;;-140.72;100.00
38197;BME280;26543;51.976;4.616;2024-02-23T09:33:31;59783.75;;;-140.72;100.00
38197;BME280;26543;51.976;4.616;2024-02-23T09:35:57;59773.56;;;-140.72;100.00
38197;BME280;26543;51.976;4.616;2024-02-23T09:38:23;59753.25;;;-140.72;100.00
38197;BME280;26543;51.976;4.616;2024-02-23T09:40:50;59743.06;;;-140.72;100.00
38197;BME280;26543;51.976;4.616;2024-02-23T09:43:16;59720.72;;;-140.72;100.00
38197;BME280;26543;51.976;4.616;2024-02-23T09:45:42;59625.16;;;-140.72;100.00
38197;BME280;26543;51.976;4.616;2024-02-23T09:48:09;59584.50;;;-140.72;100.00
38197;BME280;26543;51.976;4.616;2024-02-23T09:50:37;59600.78;;;-140.72;100.00
38197;BME280;26543;51.976;4.616;2024-02-23T09:53:04;59545.91;;;-140.72;100.00
38197;BME280;26543;51.976;4.616;2024-02-23T09:55:33;59497.09;;;-140.72;100.00
38197;BME280;26543;51.976;4.616;2024-02-23T09:57:59;59474.75;;;-140.72;100.00
38197;BME280;26543;51.976;4.616;2024-02-23T10:00:25;59428.00;;;-140.72;100.00
38197;BME280;26543;51.976;4.616;2024-02-23T10:02:50;59377.19;;;-140.72;100.00
38197;BME280;26543;51.976;4.616;2024-02-23T10:05:16;59360.91;;;-140.72;100.00
38197;BME280;26543;51.976;4.616;2024-02-23T10:07:42;59269.44;;;-140.72;100.00
38197;BME280;26543;51.976;4.616;2024-02-23T10:10:08;59230.81;;;-140.72;100.00
38197;BME280;26543;51.976;4.616;2024-02-23T10:12:35;59212.53;;;-140.72;100.00
38197;BME280;26543;51.976;4.616;2024-02-23T10:15:01;59214.56;;;-140.72;100.00
38197;BME280;26543;51.976;4.616;2024-02-23T10:17:30;59092.59;;;-140.72;100.00
38197;BME280;26543;51.976;4.616;2024-02-23T10:19:55;59068.22;;;-140.72;100.00
38197;BME280;26543;51.976;4.616;2024-02-23T10:22:23;59001.16;;;-140.72;100.00
38197;BME280;26543;51.976;4.616;2024-02-23T10:24:50;58946.28;;;-140.72;100.00
38197;BME280;26543;51.976;4.616;2024-02-23T10:27:16;58885.28;;;-140.72;100.00
38197;BME280;26543;51.976;4.616;2024-02-23T10:29:42;58824.31;;;-140.72;100.00
38197;BME280;26543;51.976;4.616;2024-02-23T10:32:10;58655.63;;;-140.72;100.00
38197;BME280;26543;51.976;4.616;2024-02-23T10:34:42;58501.19;;;-140.72;100.00
38197;BME280;26543;51.976;4.616;2024-02-23T10:37:08;58423.97;;;-140.72;100.00
38197;BME280;26543;51.976;4.616;2024-02-23T10:39:36;58265.44;;;-140.72;100.00
38197;BME280;26543;51.976;4.616;2024-02-23T10:42:03;58149.63;;;-140.72;100.00
38197;BME280;26543;51.976;4.616;2024-02-23T10:44:30;58072.41;;;-140.72;100.00
38197;BME280;26543;51.976;4.616;2024-02-23T10:46:55;57983.00;;;-140.72;100.00
38197;BME280;26543;51.976;4.616;2024-02-23T10:49:23;57879.38;;;-140.72;100.00
38197;BME280;26543;51.976;4.616;2024-02-23T10:51:51;57802.16;;;-140.72;100.00
38197;BME280;26543;51.976;4.616;2024-02-23T10:54:17;57716.81;;;-140.72;100.00
38197;BME280;26543;51.976;4.616;2024-02-23T10:56:47;57596.94;;;-140.72;100.00
38197;BME280;26543;51.976;4.616;2024-02-23T10:59:12;57523.78;;;-140.72;100.00
38197;BME280;26543;51.976;4.616;2024-02-23T11:01:39;57405.94;;;-140.72;100.00
38197;BME280;26543;51.976;4.616;2024-02-23T11:04:06;57369.38;;;-140.72;100.00
38197;BME280;26543;51.976;4.616;2024-02-23T11:06:34;57275.94;;;-140.72;100.00
38197;BME280;26543;51.976;4.616;2024-02-23T11:09:35;57212.94;;;-140.72;100.00
38197;BME280;26543;51.976;4.616;2024-02-23T11:12:03;57184.50;;;-140.72;100.00
38197;BME280;26543;51.976;4.616;2024-02-23T11:14:36;57137.78;;;-140.72;100.00
38197;BME280;26543;51.976;4.616;2024-02-23T11:17:01;57101.22;;;-140.72;100.00
38197;BME280;26543;51.976;4.616;2024-02-23T11:19:38;57097.16;;;-140.72;100.00
38197;BME280;26543;51.976;4.616;2024-02-23T11:22:04;57044.31;;;-140.72;100.00
38197;BME280;26543;51.976;4.616;2024-02-23T11:24:31;56938.69;;;-140.72;100.00
38197;BME280;26543;51.976;4.616;2024-02-23T11:27:01;57072.78;;;-140.72;100.00
38197;BME280;26543;51.976;4.616;2024-02-23T11:29:33;57038.22;;;-140.72;100.00
38197;BME280;26543;51.976;4.616;2024-02-23T11:32:00;57038.22;;;-140.72;100.00
38197;BME280;26543;51.976;4.616;2024-02-23T11:34:29;57038.22;;;-140.72;100.00
38197;BME280;26543;51.976;4.616;2024-02-23T11:36:55;57040.25;;;-140.72;100.00
38197;BME280;26543;51.976;4.616;2024-02-23T11:39:22;56914.31;;;-140.72;100.00
38197;BME280;26543;51.976;4.616;2024-02-23T11:41:48;56910.25;;;-140.72;100.00
38197;BME280;26543;51.976;4.616;2024-02-23T11:44:17;56625.84;;;-140.72;100.00
38197;BME280;26543;51.976;4.616;2024-02-23T11:46:43;56501.94;;;-140.72;100.00
38197;BME280;26543;51.976;4.616;2024-02-23T11:49:10;56439.00;;;-140.72;100.00
38197;BME280;26543;51.976;4.616;2024-02-23T11:51:35;56536.47;;;-140.72;100.00
38197;BME280;26543;51.976;4.616;2024-02-23T11:54:01;56772.13;;;-140.72;100.00
38197;BME280;26543;51.976;4.616;2024-02-23T11:56:27;56654.31;;;-140.72;100.00
38197;BME280;26543;51.976;4.616;2024-02-23T11:58:53;56573.03;;;-140.72;100.00
38197;BME280;26543;51.976;4.616;2024-02-23T12:01:20;56309.00;;;-140.72;100.00
38197;BME280;26543;51.976;4.616;2024-02-23T12:03:45;56168.84;;;-140.72;100.00
38197;BME280;26543;51.976;4.616;2024-02-23T12:06:11;56028.72;;;-140.72;100.00
38197;BME280;26543;51.976;4.616;2024-02-23T12:08:38;55900.75;;;-140.72;100.00
38197;BME280;26543;51.976;4.616;2024-02-23T12:11:05;55549.44;;;-140.72;100.00
38197;BME280;26543;51.976;4.616;2024-02-23T12:13:31;55506.78;;;-140.72;100.00
38197;BME280;26543;51.976;4.616;2024-02-23T12:15:57;55531.16;;;-140.72;100.00
38197;BME280;26543;51.976;4.616;2024-02-23T12:18:23;55531.16;;;-140.72;100.00
38197;BME280;26543;51.976;4.616;2024-02-23T12:20:51;55488.50;;;-140.72;100.00
38197;BME280;26543;51.976;4.616;2024-02-23T12:23:16;55419.47;;;-140.72;100.00